createdAt,value
2022-08-05T00:00:18.503Z,28.90
2022-08-05T00:01:20.807Z,28.89
2022-08-05T00:02:18.259Z,28.87
2022-08-05T00:03:18.140Z,28.94
2022-08-05T00:04:18.099Z,28.92
2022-08-05T00:06:03.254Z,28.96
2022-08-05T00:06:27.741Z,29.00
2022-08-05T00:07:27.074Z,28.93
2022-08-05T00:08:19.954Z,28.94
2022-08-05T00:09:19.523Z,28.96
2022-08-05T00:10:17.882Z,28.93
2022-08-05T00:11:20.720Z,28.93
2022-08-05T00:12:17.806Z,28.93
2022-08-05T00:13:18.748Z,28.93
2022-08-05T00:14:17.734Z,28.90
2022-08-05T00:15:54.990Z,28.84
2022-08-05T00:16:17.665Z,28.94
2022-08-05T00:17:18.617Z,28.87
2022-08-05T00:18:21.570Z,28.94
2022-08-05T00:19:17.577Z,28.84
2022-08-05T00:20:18.811Z,28.87
2022-08-05T00:21:17.475Z,28.82
2022-08-05T00:22:17.884Z,28.90
2022-08-05T00:23:17.405Z,28.82
2022-08-05T00:24:24.186Z,28.86
2022-08-05T00:25:17.357Z,28.86
2022-08-05T00:26:17.300Z,28.94
2022-08-05T00:27:17.282Z,28.90
2022-08-05T00:28:17.248Z,28.86
2022-08-05T00:29:17.187Z,28.82
2022-08-05T00:30:17.148Z,28.94
2022-08-05T00:31:41.287Z,28.89
2022-08-05T00:32:17.121Z,28.86
2022-08-05T00:34:54.291Z,28.92
2022-08-05T00:34:56.407Z,28.80
2022-08-05T00:35:16.965Z,28.78
2022-08-05T00:37:11.391Z,28.86
2022-08-05T00:37:16.893Z,29.02
2022-08-05T00:38:16.871Z,29.05
2022-08-05T00:39:16.858Z,29.02
2022-08-05T00:40:17.997Z,29.12
2022-08-05T00:41:16.747Z,29.12
2022-08-05T00:42:31.652Z,29.15
2022-08-05T00:43:16.671Z,29.10
2022-08-05T00:44:16.664Z,29.20
2022-08-05T00:45:16.609Z,29.18
2022-08-05T00:46:16.569Z,29.32
2022-08-05T00:47:16.547Z,29.27
2022-08-05T00:48:16.488Z,29.30
2022-08-05T00:49:16.450Z,29.32
2022-08-05T00:50:16.444Z,29.27
2022-08-05T00:51:51.909Z,29.49
2022-08-05T00:52:16.347Z,29.30
2022-08-05T00:54:01.401Z,29.28
2022-08-05T00:54:16.270Z,29.32
2022-08-05T00:55:16.230Z,29.31
2022-08-05T00:56:17.371Z,29.21
2022-08-05T00:57:16.159Z,29.07
2022-08-05T00:58:16.121Z,29.00
2022-08-05T00:59:16.087Z,28.93
2022-08-05T01:00:17.093Z,28.84
2022-08-05T01:01:16.098Z,28.82
2022-08-05T01:02:16.632Z,28.78
2022-08-05T01:03:22.366Z,28.72
2022-08-05T01:04:16.113Z,28.68
2022-08-05T01:05:15.866Z,28.71
2022-08-05T01:06:15.829Z,28.56
2022-08-05T01:07:15.832Z,28.59
2022-08-05T01:08:39.202Z,28.50
2022-08-05T01:09:17.306Z,28.47
2022-08-05T01:10:15.683Z,28.46
2022-08-05T01:11:22.659Z,28.52
2022-08-05T01:12:18.696Z,28.43
2022-08-05T01:13:19.434Z,28.33
2022-08-05T01:14:15.770Z,28.35
2022-08-05T01:15:35.803Z,28.30
2022-08-05T01:16:15.457Z,28.33
2022-08-05T01:17:15.480Z,28.28
2022-08-05T01:18:15.384Z,28.31
2022-08-05T01:19:15.376Z,28.34
2022-08-05T01:20:15.311Z,28.37
2022-08-05T01:21:22.823Z,28.31
2022-08-05T01:22:18.648Z,28.33
2022-08-05T01:23:22.951Z,28.33
2022-08-05T01:24:15.171Z,28.31
2022-08-05T01:25:15.149Z,28.23
2022-08-05T01:26:15.093Z,28.27
2022-08-05T01:27:15.063Z,28.35
2022-08-05T01:28:15.020Z,28.33
2022-08-05T01:29:14.976Z,28.28
2022-08-05T01:30:18.891Z,28.30
2022-08-05T01:31:14.914Z,28.25
2022-08-05T01:32:18.645Z,28.27
2022-08-05T01:33:14.829Z,28.27
2022-08-05T01:34:14.795Z,28.13
2022-08-05T01:35:50.779Z,28.12
2022-08-05T01:36:16.267Z,28.15
2022-08-05T01:37:24.469Z,28.10
2022-08-05T01:38:26.885Z,28.10
2022-08-05T01:39:14.671Z,28.15
2022-08-05T01:40:14.571Z,28.10
2022-08-05T01:41:14.570Z,28.15
2022-08-05T01:42:15.298Z,28.12
2022-08-05T01:43:22.396Z,28.16
2022-08-05T01:44:15.343Z,28.18
2022-08-05T01:45:14.388Z,28.10
2022-08-05T01:46:16.391Z,28.13
2022-08-05T01:47:14.313Z,28.10
2022-08-05T01:48:14.290Z,28.03
2022-08-05T01:49:23.933Z,28.04
2022-08-05T01:50:15.283Z,27.97
2022-08-05T01:51:14.166Z,27.95
2022-08-05T01:52:17.894Z,27.95
2022-08-05T01:53:14.091Z,27.88
2022-08-05T01:54:14.057Z,27.83
2022-08-05T01:55:14.035Z,27.76
2022-08-05T01:56:13.987Z,27.76
2022-08-05T01:58:14.732Z,27.72
2022-08-05T01:58:16.018Z,27.73
2022-08-05T01:59:13.866Z,27.71
2022-08-05T02:00:13.828Z,27.72
2022-08-05T02:01:13.817Z,27.71
2022-08-05T02:02:13.802Z,27.79
2022-08-05T02:03:24.086Z,27.73
2022-08-05T02:04:13.685Z,27.68
2022-08-05T02:05:13.648Z,27.60
2022-08-05T02:06:37.215Z,27.58
2022-08-05T02:07:21.651Z,27.64
2022-08-05T02:08:13.532Z,27.52
2022-08-05T02:09:14.736Z,27.57
2022-08-05T02:10:17.330Z,27.45
2022-08-05T02:11:13.422Z,27.41
2022-08-05T02:12:13.387Z,27.50
2022-08-05T02:13:16.523Z,27.44
2022-08-05T02:14:13.311Z,27.48
2022-08-05T02:15:13.281Z,27.48
2022-08-05T02:16:16.459Z,27.41
2022-08-05T02:17:29.648Z,27.43
2022-08-05T02:18:32.282Z,27.38
2022-08-05T02:19:13.129Z,27.30
2022-08-05T02:20:13.091Z,27.33
2022-08-05T02:21:15.066Z,27.34
2022-08-05T02:22:25.949Z,27.30
2022-08-05T02:23:13.523Z,27.22
2022-08-05T02:24:12.940Z,27.07
2022-08-05T02:25:12.905Z,27.13
2022-08-05T02:26:12.865Z,27.10
2022-08-05T02:27:12.829Z,26.92
2022-08-05T02:28:12.794Z,26.86
2022-08-05T02:29:21.303Z,26.88
2022-08-05T02:30:12.714Z,26.71
2022-08-05T02:31:14.938Z,26.70
2022-08-05T02:32:12.643Z,26.67
2022-08-05T02:33:12.608Z,26.66
2022-08-05T02:34:12.569Z,26.59
2022-08-05T02:35:14.279Z,26.52
2022-08-05T02:36:13.755Z,26.49
2022-08-05T02:37:12.453Z,26.51
2022-08-05T02:38:12.416Z,26.41
2022-08-05T02:39:12.425Z,26.42
2022-08-05T02:40:12.346Z,26.36
2022-08-05T02:41:16.942Z,26.37
2022-08-05T02:42:12.268Z,26.37
2022-08-05T02:43:12.236Z,26.31
2022-08-05T02:44:13.449Z,26.37
2022-08-05T02:45:12.167Z,26.36
2022-08-05T02:46:12.117Z,26.26
2022-08-05T02:47:20.418Z,26.26
2022-08-05T02:48:12.982Z,26.19
2022-08-05T02:49:12.007Z,26.15
2022-08-05T02:50:11.982Z,26.06
2022-08-05T02:51:11.935Z,26.06
2022-08-05T02:52:25.949Z,26.07
2022-08-05T02:53:12.013Z,25.96
2022-08-05T02:54:11.946Z,25.91
2022-08-05T02:55:12.301Z,25.88
2022-08-05T02:56:16.065Z,25.91
2022-08-05T02:58:13.289Z,25.91
2022-08-05T02:58:19.843Z,25.92
2022-08-05T02:59:11.626Z,25.85
2022-08-05T03:00:11.785Z,25.85
2022-08-05T03:01:11.609Z,25.77
2022-08-05T03:02:11.508Z,25.76
2022-08-05T03:03:11.483Z,25.76
2022-08-05T03:04:14.097Z,25.77
2022-08-05T03:05:11.397Z,25.71
2022-08-05T03:06:53.762Z,25.55
2022-08-05T03:07:40.530Z,25.58
2022-08-05T03:08:11.594Z,25.73
2022-08-05T03:09:11.248Z,25.71
2022-08-05T03:10:11.447Z,25.67
2022-08-05T03:11:55.599Z,25.73
2022-08-05T03:12:11.131Z,25.71
2022-08-05T03:13:11.095Z,25.85
2022-08-05T03:14:13.541Z,25.89
2022-08-05T03:15:12.398Z,25.91
2022-08-05T03:16:11.078Z,25.92
2022-08-05T03:17:11.154Z,26.03
2022-08-05T03:18:11.097Z,26.04
2022-08-05T03:19:12.709Z,25.96
2022-08-05T03:20:11.107Z,26.06
2022-08-05T03:21:10.786Z,26.06
2022-08-05T03:22:16.438Z,26.11
2022-08-05T03:23:10.746Z,26.15
2022-08-05T03:24:10.937Z,26.16
2022-08-05T03:25:32.659Z,26.18
2022-08-05T03:26:30.938Z,26.10
2022-08-05T03:27:10.570Z,26.13
2022-08-05T03:28:10.755Z,26.16
2022-08-05T03:29:12.399Z,26.26
2022-08-05T03:30:10.442Z,26.24
2022-08-05T03:31:10.405Z,26.30
2022-08-05T03:32:10.365Z,26.31
2022-08-05T03:33:10.612Z,26.33
2022-08-05T03:34:10.308Z,26.26
2022-08-05T03:35:10.422Z,26.16
2022-08-05T03:36:12.062Z,26.27
2022-08-05T03:37:10.180Z,26.30
2022-08-05T03:38:10.419Z,26.30
2022-08-05T03:39:12.940Z,26.30
2022-08-05T03:40:12.047Z,26.34
2022-08-05T03:41:10.959Z,26.22
2022-08-05T03:42:09.984Z,26.24
2022-08-05T03:43:58.307Z,26.22
2022-08-05T03:44:11.840Z,26.26
2022-08-05T03:45:21.971Z,26.19
2022-08-05T03:46:09.854Z,26.11
2022-08-05T03:47:09.796Z,26.16
2022-08-05T03:48:09.885Z,26.11
2022-08-05T03:49:09.730Z,26.06
2022-08-05T03:50:10.149Z,26.07
2022-08-05T03:52:38.454Z,26.13
2022-08-05T03:52:38.457Z,26.08
2022-08-05T03:55:49.977Z,26.10
2022-08-05T03:55:50.065Z,26.13
2022-08-05T03:56:04.437Z,25.99
2022-08-05T03:56:18.099Z,25.96
2022-08-05T03:57:16.751Z,25.92
2022-08-05T03:58:09.553Z,25.96
2022-08-05T03:59:09.372Z,25.88
2022-08-05T04:00:09.558Z,25.88
2022-08-05T04:01:11.238Z,25.77
2022-08-05T04:02:12.224Z,25.76
2022-08-05T04:03:09.189Z,25.71
2022-08-05T04:04:10.936Z,25.70
2022-08-05T04:05:11.233Z,25.66
2022-08-05T04:06:09.090Z,25.61
2022-08-05T04:07:33.040Z,25.52
2022-08-05T04:08:14.541Z,25.49
2022-08-05T04:09:09.213Z,25.52
2022-08-05T04:10:08.934Z,25.36
2022-08-05T04:11:10.093Z,25.36
2022-08-05T04:12:23.512Z,25.40
2022-08-05T04:13:09.038Z,25.41
2022-08-05T04:14:08.772Z,25.41
2022-08-05T04:15:15.969Z,25.37
2022-08-05T04:16:16.500Z,25.36
2022-08-05T04:17:08.655Z,25.34
2022-08-05T04:18:09.790Z,25.30
2022-08-05T04:19:10.611Z,25.21
2022-08-05T04:20:08.679Z,25.21
2022-08-05T04:21:11.002Z,25.14
2022-08-05T04:22:11.785Z,25.18
2022-08-05T04:23:08.421Z,25.09
2022-08-05T04:24:09.033Z,25.07
2022-08-05T04:25:08.345Z,24.97
2022-08-05T04:26:08.514Z,25.03
2022-08-05T04:27:08.725Z,24.94
2022-08-05T04:28:11.283Z,24.92
2022-08-05T04:29:08.331Z,24.79
2022-08-05T04:30:08.150Z,24.69
2022-08-05T04:31:10.443Z,24.62
2022-08-05T04:32:08.074Z,24.66
2022-08-05T04:33:08.057Z,24.65
2022-08-05T04:34:31.128Z,24.56
2022-08-05T04:35:17.632Z,24.61
2022-08-05T04:36:15.759Z,24.61
2022-08-05T04:37:07.882Z,24.58
2022-08-05T04:38:07.848Z,24.59
2022-08-05T04:39:08.119Z,24.50
2022-08-05T04:40:08.051Z,24.53
2022-08-05T04:41:09.504Z,24.46
2022-08-05T04:42:07.815Z,24.46
2022-08-05T04:43:10.976Z,24.43
2022-08-05T04:44:08.856Z,24.40
2022-08-05T04:45:07.850Z,24.44
2022-08-05T04:46:07.536Z,24.44
2022-08-05T04:47:08.653Z,24.44
2022-08-05T04:48:07.463Z,24.46
2022-08-05T04:49:12.262Z,24.51
2022-08-05T04:50:11.512Z,24.47
2022-08-05T04:51:11.059Z,24.58
2022-08-05T04:52:07.686Z,24.53
2022-08-05T04:53:07.482Z,24.48
2022-08-05T04:54:07.224Z,24.41
2022-08-05T04:55:14.233Z,24.47
2022-08-05T04:56:32.624Z,24.31
2022-08-05T04:57:07.110Z,24.37
2022-08-05T04:58:07.324Z,24.31
2022-08-05T04:59:21.770Z,24.29
2022-08-05T05:00:06.996Z,24.32
2022-08-05T05:01:07.028Z,24.37
2022-08-05T05:02:36.870Z,24.32
2022-08-05T05:03:06.932Z,24.37
2022-08-05T05:04:06.948Z,24.40
2022-08-05T05:05:16.929Z,24.34
2022-08-05T05:06:36.133Z,24.43
2022-08-05T05:07:09.567Z,24.31
2022-08-05T05:08:06.979Z,24.46
2022-08-05T05:09:06.648Z,24.37
2022-08-05T05:10:06.784Z,24.37
2022-08-05T05:11:06.568Z,24.41
2022-08-05T05:12:06.545Z,24.41
2022-08-05T05:13:06.806Z,24.48
2022-08-05T05:14:06.465Z,24.51
2022-08-05T05:15:10.765Z,24.53
2022-08-05T05:16:07.176Z,24.59
2022-08-05T05:17:06.331Z,24.75
2022-08-05T05:18:06.309Z,24.81
2022-08-05T05:19:19.546Z,24.84
2022-08-05T05:20:06.215Z,24.93
2022-08-05T05:21:06.456Z,25.01
2022-08-05T05:22:24.320Z,25.12
2022-08-05T05:23:08.369Z,25.06
2022-08-05T05:24:09.066Z,25.19
2022-08-05T05:25:16.924Z,25.19
2022-08-05T05:26:06.002Z,25.33
2022-08-05T05:27:06.092Z,25.33
2022-08-05T05:28:05.907Z,25.40
2022-08-05T05:29:14.617Z,25.49
2022-08-05T05:30:05.851Z,25.43
2022-08-05T05:31:05.917Z,25.48
2022-08-05T05:32:12.477Z,25.44
2022-08-05T05:33:17.095Z,25.59
2022-08-05T05:34:05.699Z,25.62
2022-08-05T05:35:05.993Z,25.73
2022-08-05T05:36:09.231Z,25.73
2022-08-05T05:37:05.573Z,25.73
2022-08-05T05:38:05.791Z,25.76
2022-08-05T05:39:10.865Z,25.81
2022-08-05T05:40:05.470Z,25.91
2022-08-05T05:41:07.626Z,25.95
2022-08-05T05:42:07.543Z,25.92
2022-08-05T05:43:05.362Z,25.91
2022-08-05T05:44:35.729Z,25.89
2022-08-05T05:45:05.276Z,25.96
2022-08-05T05:46:10.763Z,25.93
2022-08-05T05:47:21.619Z,25.92
2022-08-05T05:48:06.113Z,25.93
2022-08-05T05:49:06.626Z,25.88
2022-08-05T05:50:05.088Z,25.98
2022-08-05T05:51:15.717Z,25.96
2022-08-05T05:52:05.951Z,25.99
2022-08-05T05:53:20.827Z,26.07
2022-08-05T05:54:04.924Z,26.04
2022-08-05T05:55:07.393Z,26.04
2022-08-05T05:56:04.851Z,26.07
2022-08-05T05:57:04.821Z,26.07
2022-08-05T05:58:05.085Z,26.03
2022-08-05T05:59:05.621Z,25.98
2022-08-05T06:04:01.305Z,26.04
2022-08-05T06:04:49.093Z,26.03
2022-08-05T06:05:46.918Z,25.91
2022-08-05T06:06:48.802Z,26.03
2022-08-05T06:08:01.378Z,26.06
2022-08-05T06:08:49.294Z,26.06
2022-08-05T06:10:00.084Z,25.95
2022-08-05T06:10:52.416Z,26.04
2022-08-05T06:11:58.993Z,26.04
2022-08-05T06:12:46.415Z,26.10
2022-08-05T06:13:50.482Z,26.06
2022-08-05T06:14:46.576Z,26.11
2022-08-05T06:16:29.281Z,26.11
2022-08-05T06:16:46.263Z,26.13
2022-08-05T06:17:53.347Z,26.18
2022-08-05T06:18:46.476Z,26.24
2022-08-05T06:19:56.851Z,26.29
2022-08-05T06:20:47.721Z,26.27
2022-08-05T06:21:49.836Z,26.36
2022-08-05T06:22:46.034Z,26.33
2022-08-05T06:23:46.330Z,26.36
2022-08-05T06:24:48.248Z,26.37
2022-08-05T06:26:12.424Z,26.37
2022-08-05T06:26:51.589Z,26.48
2022-08-05T06:28:11.505Z,26.48
2022-08-05T06:28:45.834Z,26.55
2022-08-05T06:29:53.375Z,26.60
2022-08-05T06:30:45.751Z,26.70
2022-08-05T06:31:45.734Z,26.60
2022-08-05T06:32:46.790Z,26.70
2022-08-05T06:34:07.700Z,26.81
2022-08-05T06:34:45.636Z,26.83
2022-08-05T06:36:03.874Z,26.83
2022-08-05T06:36:57.829Z,26.83
2022-08-05T06:37:57.544Z,26.85
2022-08-05T06:38:47.242Z,26.83
2022-08-05T06:39:46.544Z,26.91
2022-08-05T06:40:45.369Z,26.93
2022-08-05T06:41:45.441Z,27.10
2022-08-05T06:42:45.295Z,27.13
2022-08-05T06:43:57.226Z,27.11
2022-08-05T06:44:45.205Z,27.05
2022-08-05T06:46:03.999Z,27.23
2022-08-05T06:46:45.129Z,27.28
2022-08-05T06:48:36.841Z,27.34
2022-08-05T06:48:55.953Z,27.33
2022-08-05T06:50:01.648Z,27.33
2022-08-05T06:50:44.977Z,27.38
2022-08-05T06:51:45.204Z,27.57
2022-08-05T06:52:44.906Z,27.58
2022-08-05T06:53:53.506Z,27.73
2022-08-05T06:54:44.836Z,27.76
2022-08-05T06:55:44.798Z,27.71
2022-08-05T06:56:54.914Z,27.83
2022-08-05T06:57:57.318Z,27.86
2022-08-05T06:58:44.676Z,27.88
2022-08-05T06:59:48.531Z,27.95
2022-08-05T07:00:44.682Z,27.98
2022-08-05T07:01:44.882Z,28.12
2022-08-05T07:02:44.528Z,28.15
2022-08-05T07:03:44.675Z,28.15
2022-08-05T07:04:44.496Z,28.23
2022-08-05T07:05:44.481Z,28.23
2022-08-05T07:06:44.490Z,28.23
2022-08-05T07:07:44.540Z,28.40
2022-08-05T07:08:48.007Z,28.28
2022-08-05T07:09:44.272Z,28.49
2022-08-05T07:10:53.263Z,28.43
2022-08-05T07:11:49.377Z,28.45
2022-08-05T07:12:49.167Z,28.57
2022-08-05T07:13:56.806Z,28.60
2022-08-05T07:14:44.106Z,28.72
2022-08-05T07:16:01.104Z,28.74
2022-08-05T07:17:59.179Z,28.80
2022-08-05T07:18:00.996Z,28.83
2022-08-05T07:18:47.710Z,28.94
2022-08-05T07:20:43.866Z,29.10
2022-08-05T07:22:00.733Z,29.24
2022-08-05T07:22:43.796Z,29.31
2022-08-05T07:23:49.885Z,29.39
2022-08-05T07:24:52.526Z,29.46
2022-08-05T07:25:56.958Z,29.49
2022-08-05T07:26:43.824Z,29.77
2022-08-05T07:27:58.374Z,29.76
2022-08-05T07:28:43.581Z,29.77
2022-08-05T07:30:23.976Z,29.89
2022-08-05T07:30:54.901Z,29.71
2022-08-05T07:32:02.209Z,29.98
2022-08-05T07:32:44.476Z,29.99
2022-08-05T07:33:51.369Z,30.05
2022-08-05T07:34:57.731Z,30.17
2022-08-05T07:36:04.335Z,30.17
2022-08-05T07:36:51.209Z,30.24
2022-08-05T07:37:54.035Z,30.33
2022-08-05T07:38:54.684Z,30.36
2022-08-05T07:40:27.027Z,30.48
2022-08-05T07:40:44.577Z,30.48
2022-08-05T07:42:12.684Z,30.35
2022-08-05T07:42:51.188Z,30.44
2022-08-05T07:43:51.227Z,30.56
2022-08-05T07:44:53.779Z,30.67
2022-08-05T07:45:57.853Z,30.77
2022-08-05T07:46:50.840Z,30.89
2022-08-05T07:47:51.384Z,30.92
2022-08-05T07:49:02.777Z,31.02
2022-08-05T07:49:43.531Z,30.99
2022-08-05T07:50:42.790Z,31.10
2022-08-05T07:51:53.390Z,31.05
2022-08-05T07:52:42.723Z,31.11
2022-08-05T07:53:50.532Z,31.14
2022-08-05T07:54:49.052Z,31.05
2022-08-05T07:55:44.474Z,31.18
2022-08-05T07:57:13.298Z,31.18
2022-08-05T07:57:57.448Z,31.36
2022-08-05T07:58:57.685Z,31.35
2022-08-05T07:59:42.517Z,31.48
2022-08-05T08:00:42.480Z,31.59
2022-08-05T08:01:51.800Z,31.70
2022-08-05T08:03:15.408Z,31.85
2022-08-05T08:03:44.700Z,31.85
2022-08-05T08:04:42.352Z,31.98
2022-08-05T08:05:45.928Z,32.04
2022-08-05T08:06:42.216Z,32.22
2022-08-05T08:07:59.185Z,32.12
2022-08-05T08:08:42.173Z,32.24
2022-08-05T08:09:42.115Z,32.34
2022-08-05T08:10:42.077Z,32.42
2022-08-05T08:11:47.530Z,32.63
2022-08-05T08:12:49.213Z,32.71
2022-08-05T08:13:42.850Z,32.88
2022-08-05T08:14:42.071Z,32.98
2022-08-05T08:16:35.755Z,32.98
2022-08-05T08:16:50.696Z,33.09
2022-08-05T08:17:49.653Z,33.17
2022-08-05T08:18:41.801Z,33.20
2022-08-05T08:20:22.277Z,33.26
2022-08-05T08:21:00.666Z,33.32
2022-08-05T08:21:41.705Z,33.45
2022-08-05T08:22:41.868Z,33.81
2022-08-05T08:24:02.310Z,34.44
2022-08-05T08:24:51.856Z,35.18
2022-08-05T08:26:00.215Z,35.82
2022-08-05T08:26:41.748Z,36.47
2022-08-05T08:27:45.051Z,36.94
2022-08-05T08:28:55.240Z,37.07
2022-08-05T08:30:05.680Z,37.07
2022-08-05T08:30:47.870Z,37.06
2022-08-05T08:31:41.524Z,37.11
2022-08-05T08:32:41.879Z,36.92
2022-08-05T08:33:41.549Z,36.88
2022-08-05T08:34:41.274Z,36.76
2022-08-05T08:35:53.750Z,36.62
2022-08-05T08:36:49.027Z,36.62
2022-08-05T08:37:45.071Z,36.53
2022-08-05T08:38:41.447Z,36.50
2022-08-05T08:39:49.512Z,36.44
2022-08-05T08:40:41.083Z,36.43
2022-08-05T08:41:51.648Z,36.38
2022-08-05T08:42:50.620Z,36.44
2022-08-05T08:45:18.391Z,36.53
2022-08-05T08:45:24.841Z,36.47
2022-08-05T08:45:41.018Z,36.59
2022-08-05T08:46:40.903Z,36.94
2022-08-05T08:48:05.597Z,37.40
2022-08-05T08:49:02.958Z,37.85
2022-08-05T08:50:06.160Z,38.09
2022-08-05T08:51:22.019Z,38.44
2022-08-05T08:52:03.647Z,38.54
2022-08-05T08:52:40.701Z,38.57
2022-08-05T08:53:44.958Z,38.75
2022-08-05T08:54:42.302Z,39.07
2022-08-05T08:56:05.136Z,39.33
2022-08-05T08:56:47.700Z,39.75
2022-08-05T08:57:48.362Z,40.00
2022-08-05T08:58:44.539Z,40.19
2022-08-05T08:59:41.928Z,40.29
2022-08-05T09:00:40.609Z,40.59
2022-08-05T09:01:42.711Z,40.95
2022-08-05T09:02:40.394Z,41.37
2022-08-05T09:03:45.273Z,41.78
2022-08-05T09:04:58.188Z,42.09
2022-08-05T09:06:09.260Z,42.39
2022-08-05T09:06:40.849Z,42.70
2022-08-05T09:07:57.367Z,43.12
2022-08-05T09:08:40.623Z,43.36
2022-08-05T09:09:40.262Z,43.70
2022-08-05T09:10:40.304Z,43.94
2022-08-05T09:11:51.394Z,44.04
2022-08-05T09:12:40.131Z,44.18
2022-08-05T09:14:09.997Z,44.57
2022-08-05T09:14:56.347Z,44.76
2022-08-05T09:15:40.011Z,44.82
2022-08-05T09:16:39.972Z,45.13
2022-08-05T09:17:42.985Z,45.30
2022-08-05T09:18:42.848Z,45.52
2022-08-05T09:19:55.417Z,45.40
2022-08-05T09:20:40.968Z,45.16
2022-08-05T09:22:17.881Z,44.80
2022-08-05T09:22:40.036Z,44.45
2022-08-05T09:23:43.546Z,44.34
2022-08-05T09:24:39.868Z,44.26
2022-08-05T09:26:01.795Z,44.14
2022-08-05T09:26:39.692Z,44.02
2022-08-05T09:28:04.931Z,43.70
2022-08-05T09:28:39.721Z,43.62
2022-08-05T09:29:44.732Z,43.61
2022-08-05T09:30:39.747Z,43.61
2022-08-05T09:32:38.821Z,43.54
2022-08-05T09:32:42.988Z,43.56
2022-08-05T09:33:39.724Z,43.35
2022-08-05T09:34:39.474Z,42.92
2022-08-05T09:35:39.533Z,42.51
2022-08-05T09:36:45.683Z,42.27
2022-08-05T09:38:16.341Z,41.84
2022-08-05T09:38:39.365Z,41.63
2022-08-05T09:39:45.263Z,40.99
2022-08-05T09:40:39.312Z,40.57
2022-08-05T09:41:39.284Z,40.40
2022-08-05T09:42:39.274Z,40.26
2022-08-05T09:43:41.086Z,40.43
2022-08-05T09:44:39.200Z,40.74
2022-08-05T09:46:06.995Z,40.89
2022-08-05T09:46:39.202Z,41.07
2022-08-05T09:47:56.237Z,41.41
2022-08-05T09:48:39.085Z,42.03
2022-08-05T09:49:40.269Z,42.46
2022-08-05T09:50:45.029Z,42.81
2022-08-05T09:51:39.983Z,43.28
2022-08-05T09:52:45.176Z,43.69
2022-08-05T09:53:54.744Z,44.10
2022-08-05T09:54:38.942Z,44.55
2022-08-05T09:55:57.572Z,44.80
2022-08-05T09:56:38.871Z,45.01
2022-08-05T09:57:40.098Z,45.21
2022-08-05T09:58:38.819Z,45.59
2022-08-05T09:59:39.092Z,45.83
2022-08-05T10:00:38.773Z,45.96
2022-08-05T10:01:46.987Z,46.30
2022-08-05T10:02:38.961Z,46.37
2022-08-05T10:03:58.782Z,46.34
2022-08-05T10:04:39.440Z,46.31
2022-08-05T10:05:38.666Z,46.40
2022-08-05T10:06:38.734Z,46.62
2022-08-05T10:08:34.971Z,46.85
2022-08-05T10:08:38.567Z,46.90
2022-08-05T10:09:45.033Z,47.09
2022-08-05T10:10:38.518Z,47.26
2022-08-05T10:11:38.512Z,47.51
2022-08-05T10:12:38.880Z,47.74
2022-08-05T10:13:45.662Z,48.04
2022-08-05T10:14:38.422Z,48.34
2022-08-05T10:15:38.640Z,48.70
2022-08-05T10:16:52.250Z,49.03
2022-08-05T10:17:40.728Z,49.02
2022-08-05T10:18:38.407Z,49.18
2022-08-05T10:20:02.917Z,49.26
2022-08-05T10:20:38.289Z,49.40
2022-08-05T10:21:40.158Z,49.53
2022-08-05T10:22:38.589Z,49.43
2022-08-05T10:24:00.055Z,49.33
2022-08-05T10:24:39.758Z,49.36
2022-08-05T10:25:38.458Z,49.44
2022-08-05T10:26:51.493Z,49.33
2022-08-05T10:28:13.382Z,49.56
2022-08-05T10:28:38.193Z,49.66
2022-08-05T10:30:06.559Z,49.64
2022-08-05T10:31:20.784Z,49.88
2022-08-05T10:32:53.842Z,49.81
2022-08-05T10:33:01.111Z,49.25
2022-08-05T10:33:38.105Z,49.24
2022-08-05T10:34:40.752Z,49.15
2022-08-05T10:35:43.807Z,49.24
2022-08-05T10:36:37.947Z,49.37
2022-08-05T10:37:44.907Z,49.48
2022-08-05T10:38:38.013Z,49.56
2022-08-05T10:40:03.157Z,49.88
2022-08-05T10:40:40.566Z,49.90
2022-08-05T10:41:44.918Z,50.17
2022-08-05T10:42:37.799Z,50.22
2022-08-05T10:43:37.805Z,50.36
2022-08-05T10:44:37.776Z,50.33
2022-08-05T10:45:40.542Z,50.20
2022-08-05T10:46:37.816Z,49.79
2022-08-05T10:47:47.150Z,49.68
2022-08-05T10:48:52.848Z,49.63
2022-08-05T10:49:49.081Z,49.60
2022-08-05T10:50:37.708Z,49.45
2022-08-05T10:51:40.233Z,49.62
2022-08-05T10:52:49.382Z,49.75
2022-08-05T10:53:37.974Z,49.97
2022-08-05T10:54:38.003Z,49.64
2022-08-05T10:56:05.100Z,49.34
2022-08-05T10:56:37.504Z,48.95
2022-08-05T10:57:38.644Z,48.26
2022-08-05T10:58:48.632Z,48.01
2022-08-05T11:00:02.519Z,47.99
2022-08-05T11:00:42.254Z,48.04
2022-08-05T11:01:54.098Z,48.13
2022-08-05T11:02:38.840Z,48.10
2022-08-05T11:03:37.391Z,48.23
2022-08-05T11:04:37.327Z,48.23
2022-08-05T11:05:37.301Z,48.07
2022-08-05T11:06:37.294Z,48.04
2022-08-05T11:08:02.648Z,48.17
2022-08-05T11:08:39.227Z,48.26
2022-08-05T11:09:45.589Z,48.46
2022-08-05T11:10:37.271Z,48.76
2022-08-05T11:11:44.513Z,49.05
2022-08-05T11:12:37.430Z,49.33
2022-08-05T11:13:37.126Z,49.56
2022-08-05T11:15:01.569Z,49.57
2022-08-05T11:16:01.307Z,49.62
2022-08-05T11:16:57.924Z,49.74
2022-08-05T11:17:59.193Z,49.74
2022-08-05T11:18:37.038Z,49.82
2022-08-05T11:20:11.183Z,50.03
2022-08-05T11:20:36.971Z,50.19
2022-08-05T11:21:48.723Z,50.52
2022-08-05T11:22:36.929Z,50.77
2022-08-05T11:24:02.593Z,50.93
2022-08-05T11:24:36.887Z,51.17
2022-08-05T11:26:04.686Z,51.37
2022-08-05T11:26:36.846Z,51.56
2022-08-05T11:27:49.188Z,51.47
2022-08-05T11:28:36.810Z,51.63
2022-08-05T11:29:37.308Z,51.82
2022-08-05T11:30:36.763Z,51.73
2022-08-05T11:31:56.271Z,51.70
2022-08-05T11:32:36.719Z,51.94
2022-08-05T11:33:45.997Z,52.05
2022-08-05T11:34:36.689Z,52.05
2022-08-05T11:35:36.679Z,51.95
2022-08-05T11:36:40.528Z,51.18
2022-08-05T11:38:37.294Z,50.66
2022-08-05T11:38:45.245Z,50.44
2022-08-05T11:39:36.592Z,50.31
2022-08-05T11:40:36.561Z,50.24
2022-08-05T11:42:01.335Z,49.78
2022-08-05T11:42:37.825Z,49.64
2022-08-05T11:44:06.462Z,49.75
2022-08-05T11:44:52.791Z,49.90
2022-08-05T11:46:27.108Z,50.33
2022-08-05T11:46:36.465Z,50.51
2022-08-05T11:47:48.828Z,50.52
2022-08-05T11:48:36.391Z,50.60
2022-08-05T11:49:36.372Z,50.79
2022-08-05T11:50:36.348Z,50.56
2022-08-05T11:51:44.631Z,50.71
2022-08-05T11:52:36.321Z,50.63
2022-08-05T11:53:40.949Z,50.36
2022-08-05T11:54:36.263Z,50.22
2022-08-05T11:55:36.728Z,50.31
2022-08-05T11:56:41.025Z,49.88
2022-08-05T11:58:08.467Z,49.38
2022-08-05T11:58:36.185Z,49.06
2022-08-05T11:59:42.058Z,48.70
2022-08-05T12:00:38.061Z,48.74
2022-08-05T12:01:36.120Z,48.73
2022-08-05T12:02:36.349Z,48.76
2022-08-05T12:03:36.106Z,48.71
2022-08-05T12:04:36.059Z,48.79
2022-08-05T12:05:39.569Z,48.73
2022-08-05T12:06:36.010Z,48.77
2022-08-05T12:08:10.228Z,49.03
2022-08-05T12:08:35.980Z,49.14
2022-08-05T12:09:53.559Z,49.62
2022-08-05T12:10:38.991Z,49.94
2022-08-05T12:11:40.514Z,50.25
2022-08-05T12:12:35.891Z,50.28
2022-08-05T12:13:48.499Z,50.12
2022-08-05T12:14:35.842Z,50.19
2022-08-05T12:15:38.061Z,50.39
2022-08-05T12:16:38.553Z,50.45
2022-08-05T12:18:00.763Z,50.45
2022-08-05T12:18:38.959Z,50.17
2022-08-05T12:20:27.063Z,50.06
2022-08-05T12:20:35.719Z,49.88
2022-08-05T12:21:39.378Z,49.87
2022-08-05T12:22:35.677Z,49.75
2022-08-05T12:23:35.661Z,49.55
2022-08-05T12:24:35.649Z,49.09
2022-08-05T12:25:35.616Z,48.48
2022-08-05T12:26:36.073Z,48.22
2022-08-05T12:27:35.761Z,48.07
2022-08-05T12:28:36.689Z,47.72
2022-08-05T12:29:38.681Z,47.55
2022-08-05T12:30:35.515Z,47.38
2022-08-05T12:31:42.504Z,47.50
2022-08-05T12:32:35.465Z,47.30
2022-08-05T12:33:36.978Z,47.22
2022-08-05T12:34:35.788Z,46.75
2022-08-05T12:35:39.671Z,46.16
2022-08-05T12:36:35.444Z,45.64
2022-08-05T12:37:35.343Z,45.20
2022-08-05T12:38:35.320Z,44.84
2022-08-05T12:39:38.559Z,44.53
2022-08-05T12:40:35.285Z,44.23
2022-08-05T12:41:35.244Z,43.82
2022-08-05T12:42:35.218Z,43.36
2022-08-05T12:43:35.195Z,42.99
2022-08-05T12:44:35.171Z,42.73
2022-08-05T12:45:42.409Z,42.49
2022-08-05T12:46:35.135Z,42.18
2022-08-05T12:47:35.092Z,41.98
2022-08-05T12:48:35.063Z,41.86
2022-08-05T12:50:04.622Z,41.76
2022-08-05T12:50:35.012Z,41.80
2022-08-05T12:52:14.291Z,41.65
2022-08-05T12:52:38.768Z,41.67
2022-08-05T12:53:37.084Z,41.70
2022-08-05T12:54:34.898Z,41.60
2022-08-05T12:55:35.314Z,41.46
2022-08-05T12:56:37.498Z,41.32